createdAt,value
2023-09-08T00:01:35.401Z,17.75
2023-09-08T00:04:03.845Z,17.72
2023-09-08T00:06:32.319Z,17.67
2023-09-08T00:09:00.483Z,17.66
2023-09-08T00:11:28.676Z,17.63
2023-09-08T00:13:56.867Z,17.59
2023-09-08T00:16:25.223Z,17.55
2023-09-08T00:18:54.172Z,17.53
2023-09-08T00:21:22.351Z,17.57
2023-09-08T00:23:50.534Z,17.56
2023-09-08T00:26:18.760Z,17.55
2023-09-08T00:28:47.431Z,17.51
2023-09-08T00:31:15.836Z,17.47
2023-09-08T00:33:45.557Z,17.43
2023-09-08T00:36:13.836Z,17.38
2023-09-08T00:38:42.654Z,17.37
2023-09-08T00:41:10.998Z,17.32
2023-09-08T00:43:39.271Z,17.32
2023-09-08T00:46:08.934Z,17.32
2023-09-08T00:48:38.940Z,17.30
2023-09-08T00:51:08.935Z,17.27
2023-09-08T00:53:37.463Z,17.27
2023-09-08T00:56:06.634Z,17.24
2023-09-08T00:58:36.020Z,17.21
2023-09-08T01:01:07.199Z,17.18
2023-09-08T01:03:35.534Z,17.14
2023-09-08T01:06:04.328Z,17.10
2023-09-08T01:08:33.277Z,17.09
2023-09-08T01:11:02.096Z,17.09
2023-09-08T01:13:30.742Z,17.10
2023-09-08T01:15:59.105Z,17.10
2023-09-08T01:18:28.720Z,17.07
2023-09-08T01:21:08.452Z,17.06
2023-09-08T01:23:58.846Z,17.07
2023-09-08T01:26:32.963Z,17.06
2023-09-08T01:29:01.961Z,17.04
2023-09-08T01:31:30.366Z,17.03
2023-09-08T01:34:07.911Z,16.98
2023-09-08T01:36:37.123Z,16.94
2023-09-08T01:39:05.426Z,16.92
2023-09-08T01:41:33.828Z,16.85
2023-09-08T01:44:06.482Z,16.84
2023-09-08T01:46:36.512Z,16.82
2023-09-08T01:49:04.846Z,16.83
2023-09-08T01:51:33.140Z,16.79
2023-09-08T01:54:02.890Z,16.77
2023-09-08T01:56:31.114Z,16.76
2023-09-08T01:59:00.519Z,16.73
2023-09-08T02:01:29.385Z,16.68
2023-09-08T02:03:57.630Z,16.69
2023-09-08T02:06:25.859Z,16.69
2023-09-08T02:08:54.735Z,16.68
2023-09-08T02:11:23.051Z,16.66
2023-09-08T02:13:51.258Z,16.66
2023-09-08T02:16:19.633Z,16.61
2023-09-08T02:18:47.792Z,16.59
2023-09-08T02:21:15.980Z,16.56
2023-09-08T02:23:44.825Z,16.56
2023-09-08T02:26:13.089Z,16.53
2023-09-08T02:28:41.293Z,16.50
2023-09-08T02:31:09.586Z,16.48
2023-09-08T02:33:37.837Z,16.46
2023-09-08T02:36:07.388Z,16.49
2023-09-08T02:38:37.504Z,16.49
2023-09-08T02:41:06.393Z,16.48
2023-09-08T02:43:34.591Z,16.45
2023-09-08T02:46:02.941Z,16.46
2023-09-08T02:48:32.633Z,16.45
2023-09-08T02:51:00.937Z,16.44
2023-09-08T02:53:30.009Z,16.44
2023-09-08T02:55:59.134Z,16.42
2023-09-08T02:58:28.911Z,16.42
2023-09-08T03:00:58.022Z,16.40
2023-09-08T03:03:26.292Z,16.39
2023-09-08T03:06:01.626Z,16.36
2023-09-08T03:08:30.395Z,16.33
2023-09-08T03:11:00.627Z,16.30
2023-09-08T03:13:30.316Z,16.29
2023-09-08T03:15:58.609Z,16.24
2023-09-08T03:18:26.845Z,16.22
2023-09-08T03:20:55.098Z,16.23
2023-09-08T03:23:24.053Z,16.20
2023-09-08T03:25:52.348Z,16.18
2023-09-08T03:28:20.516Z,16.17
2023-09-08T03:30:48.778Z,16.18
2023-09-08T03:33:17.402Z,16.16
2023-09-08T03:35:45.827Z,16.17
2023-09-08T03:38:14.138Z,16.18
2023-09-08T03:40:43.856Z,16.18
2023-09-08T03:43:12.301Z,16.16
2023-09-08T03:45:40.588Z,16.18
2023-09-08T03:48:08.954Z,16.19
2023-09-08T03:50:37.427Z,16.21
2023-09-08T03:53:05.996Z,16.20
2023-09-08T03:55:34.610Z,16.22
2023-09-08T03:58:02.817Z,16.21
2023-09-08T04:00:31.224Z,16.21
2023-09-08T04:02:59.525Z,16.21
2023-09-08T04:05:27.885Z,16.19
2023-09-08T04:07:56.235Z,16.19
2023-09-08T04:10:24.434Z,16.18
2023-09-08T04:12:52.996Z,16.19
2023-09-08T04:15:21.901Z,16.20
2023-09-08T04:17:50.279Z,16.20
2023-09-08T04:20:19.761Z,16.19
2023-09-08T04:22:48.937Z,16.16
2023-09-08T04:25:17.209Z,16.15
2023-09-08T04:27:45.900Z,16.15
2023-09-08T04:30:14.931Z,16.13
2023-09-08T04:32:43.964Z,16.15
2023-09-08T04:35:12.815Z,16.14
2023-09-08T04:37:41.384Z,16.10
2023-09-08T04:40:09.935Z,16.08
2023-09-08T04:42:38.938Z,16.04
2023-09-08T04:45:08.948Z,16.00
2023-09-08T04:47:38.882Z,15.96
2023-09-08T04:50:07.828Z,15.92
2023-09-08T04:52:36.436Z,15.90
2023-09-08T04:55:06.010Z,15.85
2023-09-08T04:57:34.636Z,15.85
2023-09-08T05:00:04.316Z,15.83
2023-09-08T05:02:32.706Z,15.85
2023-09-08T05:05:01.440Z,15.85
2023-09-08T05:07:29.999Z,15.85
2023-09-08T05:09:58.575Z,15.86
2023-09-08T05:12:30.613Z,15.86
2023-09-08T05:15:07.094Z,15.87
2023-09-08T05:17:37.502Z,15.91
2023-09-08T05:20:06.289Z,15.91
2023-09-08T05:22:34.764Z,15.97
2023-09-08T05:25:03.182Z,15.99
2023-09-08T05:27:33.000Z,16.04
2023-09-08T05:30:01.394Z,16.09
2023-09-08T05:32:29.830Z,16.13
2023-09-08T05:34:58.061Z,16.16
2023-09-08T05:37:26.244Z,16.22
2023-09-08T05:39:54.646Z,16.28
2023-09-08T05:42:22.903Z,16.33
2023-09-08T05:44:52.168Z,16.40
2023-09-08T05:47:20.564Z,16.47
2023-09-08T05:49:48.959Z,16.50
2023-09-08T05:52:17.207Z,16.55
2023-09-08T05:54:46.725Z,16.66
2023-09-08T05:57:14.960Z,16.70
2023-09-08T05:59:43.296Z,16.80
2023-09-08T06:02:11.631Z,16.86
2023-09-08T06:04:39.941Z,16.95
2023-09-08T06:07:09.823Z,17.04
2023-09-08T06:09:38.291Z,17.13
2023-09-08T06:12:07.119Z,17.18
2023-09-08T06:14:35.446Z,17.27
2023-09-08T06:17:03.668Z,17.32
2023-09-08T06:19:32.166Z,17.38
2023-09-08T06:22:00.396Z,17.46
2023-09-08T06:24:29.181Z,17.55
2023-09-08T06:26:57.857Z,17.64
2023-09-08T06:29:26.963Z,17.74
2023-09-08T06:31:55.211Z,17.81
2023-09-08T06:34:24.477Z,17.90
2023-09-08T06:36:53.034Z,17.98
2023-09-08T06:39:21.301Z,18.05
2023-09-08T06:41:49.610Z,18.08
2023-09-08T06:44:19.283Z,18.16
2023-09-08T06:46:48.185Z,18.24
2023-09-08T06:49:16.754Z,18.33
2023-09-08T06:51:44.987Z,18.43
2023-09-08T06:54:13.285Z,18.92
2023-09-08T06:56:44.527Z,19.83
2023-09-08T06:59:13.355Z,19.83
2023-09-08T07:01:41.711Z,19.76
2023-09-08T07:04:12.343Z,20.33
2023-09-08T07:06:43.117Z,22.14
2023-09-08T07:09:12.295Z,22.86
2023-09-08T07:11:40.698Z,21.76
2023-09-08T07:14:09.525Z,21.55
2023-09-08T07:16:38.725Z,21.17
2023-09-08T07:19:07.828Z,20.87
2023-09-08T07:21:35.773Z,20.78
2023-09-08T07:24:04.073Z,20.68
2023-09-08T07:26:32.315Z,21.04
2023-09-08T07:29:00.599Z,20.87
2023-09-08T07:31:28.868Z,20.92
2023-09-08T07:33:57.173Z,20.85
2023-09-08T07:36:25.440Z,20.81
2023-09-08T07:38:55.834Z,20.88
2023-09-08T07:41:24.887Z,20.92
2023-09-08T07:43:53.160Z,20.97
2023-09-08T07:46:25.405Z,21.06
2023-09-08T07:48:54.054Z,21.07
2023-09-08T07:51:22.267Z,21.14
2023-09-08T07:53:50.611Z,21.07
2023-09-08T07:56:18.972Z,21.12
2023-09-08T07:58:47.300Z,21.17
2023-09-08T08:01:16.584Z,21.21
2023-09-08T08:03:44.952Z,21.25
2023-09-08T08:06:13.256Z,21.54
2023-09-08T08:08:41.741Z,21.53
2023-09-08T08:11:13.617Z,21.53
2023-09-08T08:13:41.522Z,21.62
2023-09-08T08:16:09.821Z,21.74
2023-09-08T08:18:38.410Z,21.82
2023-09-08T08:21:07.084Z,21.91
2023-09-08T08:23:35.571Z,22.11
2023-09-08T08:26:04.395Z,23.13
2023-09-08T08:28:32.797Z,23.15
2023-09-08T08:31:01.407Z,23.78
2023-09-08T08:33:30.577Z,23.69
2023-09-08T08:36:19.979Z,23.27
2023-09-08T08:38:48.302Z,23.79
2023-09-08T08:41:16.847Z,24.51
2023-09-08T08:43:46.208Z,25.68
2023-09-08T08:46:16.036Z,25.86
2023-09-08T08:48:46.042Z,27.90
2023-09-08T08:51:15.296Z,28.22
2023-09-08T08:53:44.357Z,26.30
2023-09-08T08:56:12.623Z,26.00
2023-09-08T08:58:41.860Z,26.30
2023-09-08T09:01:12.984Z,26.76
2023-09-08T09:03:44.129Z,26.20
2023-09-08T09:06:16.103Z,28.23
2023-09-08T09:08:48.299Z,29.02
2023-09-08T09:11:17.492Z,30.01
2023-09-08T09:13:45.785Z,31.38
2023-09-08T09:16:16.421Z,32.78
2023-09-08T09:19:01.759Z,33.26
2023-09-08T09:21:44.877Z,34.14
2023-09-08T09:24:21.311Z,34.74
2023-09-08T09:26:54.584Z,35.23
2023-09-08T09:29:22.845Z,35.48
2023-09-08T09:32:07.200Z,35.89
2023-09-08T09:34:36.829Z,36.27
2023-09-08T09:37:06.842Z,36.38
2023-09-08T09:39:35.030Z,36.52
2023-09-08T09:42:05.573Z,36.68
2023-09-08T09:44:33.762Z,36.93
2023-09-08T09:47:03.059Z,37.01
2023-09-08T09:49:33.403Z,36.30
2023-09-08T09:52:01.797Z,34.37
2023-09-08T09:54:31.349Z,33.28
2023-09-08T09:56:59.696Z,32.63
2023-09-08T09:59:28.800Z,33.53
2023-09-08T10:01:57.298Z,35.27
2023-09-08T10:04:26.263Z,36.33
2023-09-08T10:06:55.271Z,36.97
2023-09-08T10:09:24.162Z,37.36
2023-09-08T10:11:52.618Z,37.60
2023-09-08T10:14:20.980Z,37.73
2023-09-08T10:16:53.886Z,38.04
2023-09-08T10:19:23.913Z,38.05
2023-09-08T10:21:56.494Z,38.30
2023-09-08T10:24:30.068Z,38.38
2023-09-08T10:27:06.715Z,38.43
2023-09-08T10:29:35.051Z,38.36
2023-09-08T10:32:04.757Z,38.27
2023-09-08T10:34:35.611Z,38.41
2023-09-08T10:37:06.982Z,38.25
2023-09-08T10:39:40.833Z,38.31
2023-09-08T10:42:20.934Z,38.66
2023-09-08T10:44:49.161Z,38.72
2023-09-08T10:47:32.090Z,38.78
2023-09-08T10:50:01.583Z,38.81
2023-09-08T10:52:29.992Z,38.78
2023-09-08T10:54:58.359Z,38.59
2023-09-08T10:57:31.548Z,38.37
2023-09-08T11:00:21.400Z,37.93
2023-09-08T11:02:52.851Z,37.28
2023-09-08T11:05:22.579Z,36.36
2023-09-08T11:07:50.973Z,35.58
2023-09-08T11:10:19.271Z,34.94
2023-09-08T11:12:47.587Z,34.16
2023-09-08T11:15:15.790Z,33.47
2023-09-08T11:17:44.172Z,33.37
2023-09-08T11:20:13.875Z,33.30
2023-09-08T11:22:42.476Z,33.52
2023-09-08T11:25:13.014Z,33.36
2023-09-08T11:27:41.679Z,33.17
2023-09-08T11:30:10.829Z,32.75
2023-09-08T11:32:39.213Z,32.69
2023-09-08T11:35:10.619Z,32.67
2023-09-08T11:37:40.178Z,32.60
2023-09-08T11:40:13.943Z,32.71
2023-09-08T11:42:47.029Z,32.62
2023-09-08T11:45:19.431Z,32.47
2023-09-08T11:47:47.698Z,32.36
2023-09-08T11:50:19.482Z,32.49
2023-09-08T11:52:52.795Z,32.54
2023-09-08T11:55:24.369Z,32.45
2023-09-08T11:58:17.603Z,32.34
2023-09-08T12:00:49.130Z,32.14
2023-09-08T12:03:18.119Z,31.93
2023-09-08T12:05:52.436Z,32.04
2023-09-08T12:08:20.753Z,32.08
2023-09-08T12:10:49.047Z,32.07
2023-09-08T12:13:24.160Z,31.94
2023-09-08T12:15:52.572Z,32.04
2023-09-08T12:18:20.859Z,32.07
2023-09-08T12:21:04.674Z,32.05
2023-09-08T12:23:32.860Z,32.07
2023-09-08T12:26:01.356Z,32.21
2023-09-08T12:28:33.199Z,32.15
2023-09-08T12:31:01.476Z,31.95
2023-09-08T12:33:29.698Z,31.71
2023-09-08T12:35:57.968Z,31.77
2023-09-08T12:38:34.652Z,31.75
2023-09-08T12:41:03.177Z,31.66
2023-09-08T12:43:31.538Z,31.65
2023-09-08T12:45:59.881Z,31.52
2023-09-08T12:48:28.153Z,31.60
2023-09-08T12:50:56.434Z,31.68
2023-09-08T12:53:24.804Z,31.74
2023-09-08T12:55:53.067Z,31.73
2023-09-08T12:58:21.899Z,31.67
2023-09-08T13:00:50.159Z,31.66
2023-09-08T13:03:18.399Z,31.50
2023-09-08T13:05:46.733Z,31.50
2023-09-08T13:08:16.672Z,31.63
2023-09-08T13:10:44.971Z,31.61
2023-09-08T13:13:13.302Z,31.65
2023-09-08T13:15:41.565Z,31.56
2023-09-08T13:18:09.973Z,31.53
2023-09-08T13:20:38.225Z,31.52
2023-09-08T13:23:06.493Z,31.38
2023-09-08T13:25:34.716Z,31.49
2023-09-08T13:28:03.086Z,31.53
2023-09-08T13:30:31.342Z,31.54
2023-09-08T13:32:59.731Z,31.56
2023-09-08T13:35:27.955Z,31.60
2023-09-08T13:37:56.132Z,31.50
2023-09-08T13:40:24.437Z,31.54
2023-09-08T13:42:52.847Z,31.67
2023-09-08T13:45:21.130Z,31.66
2023-09-08T13:47:50.535Z,31.59
2023-09-08T13:50:20.841Z,31.44
2023-09-08T13:52:51.451Z,31.44
2023-09-08T13:55:37.098Z,31.39
2023-09-08T13:58:09.174Z,31.47
2023-09-08T14:00:45.011Z,31.48
2023-09-08T14:03:15.231Z,31.39
2023-09-08T14:05:46.229Z,31.31
2023-09-08T14:08:20.167Z,31.18
2023-09-08T14:13:27.562Z,31.25
2023-09-08T14:15:56.426Z,31.20
2023-09-08T14:18:24.764Z,31.17
2023-09-08T14:20:52.977Z,31.16
2023-09-08T14:23:21.242Z,31.18
2023-09-08T14:25:49.474Z,31.09
2023-09-08T14:28:17.649Z,31.07
2023-09-08T14:30:45.919Z,31.03
2023-09-08T14:33:14.176Z,30.86
2023-09-08T14:35:47.172Z,30.79
2023-09-08T14:38:17.877Z,30.70
2023-09-08T14:40:47.165Z,30.68
2023-09-08T14:43:15.345Z,30.67
2023-09-08T14:45:46.752Z,30.62
2023-09-08T14:48:15.536Z,30.56
2023-09-08T14:50:43.904Z,30.72
2023-09-08T14:53:12.203Z,30.77
2023-09-08T14:55:45.262Z,30.68
2023-09-08T14:58:13.631Z,30.60
2023-09-08T15:00:42.384Z,30.45
2023-09-08T15:03:10.695Z,30.39
2023-09-08T15:05:38.940Z,30.26
2023-09-08T15:08:07.281Z,30.23
2023-09-08T15:10:35.490Z,30.25
2023-09-08T15:13:04.634Z,30.33
2023-09-08T15:15:32.900Z,30.39
2023-09-08T15:18:01.238Z,30.42
2023-09-08T15:20:29.562Z,30.44
2023-09-08T15:22:57.958Z,30.44
2023-09-08T15:25:26.211Z,30.47
2023-09-08T15:27:54.449Z,30.47
2023-09-08T15:30:22.836Z,30.42
2023-09-08T15:32:51.192Z,30.42
2023-09-08T15:35:19.498Z,30.45
2023-09-08T15:37:47.788Z,30.33
2023-09-08T15:40:16.117Z,30.33
2023-09-08T15:42:44.736Z,30.33
2023-09-08T15:45:13.404Z,30.26
2023-09-08T15:47:41.679Z,30.12
2023-09-08T15:50:11.627Z,30.04
2023-09-08T15:52:39.866Z,30.07
2023-09-08T15:55:08.371Z,30.01
2023-09-08T15:57:36.551Z,29.95
2023-09-08T16:00:04.999Z,29.90
2023-09-08T16:02:37.071Z,29.86
2023-09-08T16:05:05.991Z,29.72
2023-09-08T16:07:34.263Z,29.62
2023-09-08T16:10:02.507Z,29.57
2023-09-08T16:12:32.837Z,29.52
2023-09-08T16:15:03.250Z,29.59
2023-09-08T16:17:31.592Z,29.68
2023-09-08T16:20:00.536Z,29.71
2023-09-08T16:22:28.720Z,29.71
2023-09-08T16:24:57.203Z,29.71
2023-09-08T16:27:27.667Z,29.72
2023-09-08T16:29:55.845Z,29.72
2023-09-08T16:32:24.148Z,29.65
2023-09-08T16:34:53.064Z,29.52
2023-09-08T16:37:21.290Z,29.40
2023-09-08T16:39:49.521Z,29.32
2023-09-08T16:42:17.785Z,29.24
2023-09-08T16:44:46.117Z,29.11
2023-09-08T16:47:14.319Z,29.10
2023-09-08T16:49:42.897Z,28.99
2023-09-08T16:52:11.174Z,28.82
2023-09-08T16:54:39.402Z,28.65
2023-09-08T16:57:07.752Z,28.50
2023-09-08T16:59:36.048Z,28.35
2023-09-08T17:02:04.450Z,28.19
2023-09-08T17:04:32.785Z,28.04
2023-09-08T17:07:01.121Z,27.87
2023-09-08T17:09:29.775Z,27.77
2023-09-08T17:11:57.917Z,27.61
2023-09-08T17:14:25.776Z,27.43
2023-09-08T17:16:54.218Z,27.31
2023-09-08T17:19:22.492Z,27.21
2023-09-08T17:21:51.831Z,27.14
2023-09-08T17:24:20.262Z,27.05
2023-09-08T17:26:48.456Z,26.94
2023-09-08T17:29:16.321Z,26.83
2023-09-08T17:31:44.548Z,26.75
2023-09-08T17:34:21.143Z,26.59
2023-09-08T17:36:53.982Z,26.46
2023-09-08T17:39:22.231Z,26.34
2023-09-08T17:41:50.312Z,26.24
2023-09-08T17:44:18.469Z,26.13
2023-09-08T17:46:48.866Z,26.06
2023-09-08T17:49:17.297Z,25.95
2023-09-08T17:51:45.543Z,25.86
2023-09-08T17:54:13.507Z,25.78
2023-09-08T17:56:41.745Z,25.68
2023-09-08T17:59:09.588Z,25.59
2023-09-08T18:01:39.108Z,25.50
2023-09-08T18:04:07.936Z,25.42
2023-09-08T18:06:36.273Z,25.34
2023-09-08T18:09:04.782Z,25.22
2023-09-08T18:11:34.126Z,25.14
2023-09-08T18:14:02.380Z,25.06
2023-09-08T18:16:30.187Z,24.96
2023-09-08T18:18:58.450Z,24.89
2023-09-08T18:21:26.642Z,24.82
2023-09-08T18:23:54.866Z,24.74
2023-09-08T18:26:23.241Z,24.65
2023-09-08T18:28:51.475Z,24.57
2023-09-08T18:31:19.740Z,24.51
2023-09-08T18:33:47.664Z,24.44
2023-09-08T18:36:15.830Z,24.38
2023-09-08T18:38:44.018Z,24.32
2023-09-08T18:41:12.306Z,24.26
2023-09-08T18:43:40.193Z,24.18
2023-09-08T18:46:08.414Z,24.13
2023-09-08T18:48:37.500Z,24.08
2023-09-08T18:51:05.756Z,24.01
2023-09-08T18:53:35.900Z,23.93
2023-09-08T18:56:05.233Z,23.86
2023-09-08T18:58:40.176Z,23.80
2023-09-08T19:01:08.744Z,23.75
2023-09-08T19:03:43.854Z,23.71
2023-09-08T19:06:12.159Z,23.67
2023-09-08T19:08:40.623Z,23.60
2023-09-08T19:11:08.894Z,23.57
2023-09-08T19:13:37.454Z,23.51
2023-09-08T19:16:05.944Z,23.46
2023-09-08T19:18:34.253Z,23.39
2023-09-08T19:21:02.445Z,23.34
2023-09-08T19:23:31.216Z,23.28
2023-09-08T19:25:59.435Z,23.24
2023-09-08T19:28:27.622Z,23.17
2023-09-08T19:30:56.059Z,23.13
2023-09-08T19:33:24.493Z,23.12
2023-09-08T19:35:52.656Z,23.12
2023-09-08T19:38:20.862Z,23.05
2023-09-08T19:40:49.181Z,23.00
2023-09-08T19:43:17.415Z,22.98
2023-09-08T19:45:45.655Z,22.96
2023-09-08T19:48:14.054Z,22.92
2023-09-08T19:50:45.699Z,22.85
2023-09-08T19:53:13.927Z,22.78
2023-09-08T19:55:42.220Z,22.74
2023-09-08T19:58:10.510Z,22.68
2023-09-08T20:00:39.893Z,22.66
2023-09-08T20:03:08.126Z,22.58
2023-09-08T20:05:36.493Z,22.53
2023-09-08T20:08:04.766Z,22.51
2023-09-08T20:10:33.277Z,22.49
2023-09-08T20:13:03.060Z,22.43
2023-09-08T20:15:31.318Z,22.41
2023-09-08T20:18:00.446Z,22.42
2023-09-08T20:20:28.810Z,22.42
2023-09-08T20:22:57.015Z,22.42
2023-09-08T20:25:25.326Z,22.41
2023-09-08T20:27:53.496Z,22.42
2023-09-08T20:30:22.037Z,22.33
2023-09-08T20:32:50.310Z,22.31
2023-09-08T20:35:18.779Z,22.29
2023-09-08T20:37:46.683Z,22.25
2023-09-08T20:40:14.962Z,22.22
2023-09-08T20:42:43.136Z,22.17
2023-09-08T20:45:11.569Z,22.12
2023-09-08T20:47:39.491Z,22.08
2023-09-08T20:50:08.132Z,22.06
2023-09-08T20:52:38.309Z,22.01
2023-09-08T20:55:07.104Z,21.99
2023-09-08T20:57:35.411Z,21.93
2023-09-08T21:00:05.158Z,21.91
2023-09-08T21:02:33.551Z,21.88
2023-09-08T21:05:01.791Z,21.82
2023-09-08T21:07:30.043Z,21.79
2023-09-08T21:09:58.229Z,21.74
2023-09-08T21:12:26.794Z,21.70
2023-09-08T21:14:57.445Z,21.70
2023-09-08T21:17:25.685Z,21.64
2023-09-08T21:19:53.948Z,21.59
2023-09-08T21:22:22.242Z,21.55
2023-09-08T21:24:50.422Z,21.50
2023-09-08T21:27:18.677Z,21.48
2023-09-08T21:29:47.445Z,21.46
2023-09-08T21:32:15.793Z,21.42
2023-09-08T21:34:43.999Z,21.36
2023-09-08T21:37:12.222Z,21.30
2023-09-08T21:39:40.455Z,21.27
2023-09-08T21:42:08.801Z,21.25
2023-09-08T21:44:37.009Z,21.21
2023-09-08T21:47:05.565Z,21.16
2023-09-08T21:49:33.837Z,21.16
2023-09-08T21:52:02.162Z,21.15
2023-09-08T21:54:30.378Z,21.13
2023-09-08T21:56:58.599Z,21.07
2023-09-08T21:59:26.860Z,21.01
2023-09-08T22:01:55.985Z,20.97
2023-09-08T22:04:24.618Z,20.93
2023-09-08T22:06:54.053Z,20.89
2023-09-08T22:09:23.156Z,20.87
2023-09-08T22:11:51.661Z,20.83
2023-09-08T22:14:19.650Z,20.80
2023-09-08T22:16:47.973Z,20.77
2023-09-08T22:19:16.410Z,20.71
2023-09-08T22:21:45.715Z,20.69
2023-09-08T22:24:14.066Z,20.68
2023-09-08T22:26:42.270Z,20.66
2023-09-08T22:29:10.564Z,20.60
2023-09-08T22:31:38.850Z,20.59
2023-09-08T22:34:07.131Z,20.56
2023-09-08T22:36:35.386Z,20.52
2023-09-08T22:39:05.811Z,20.47
2023-09-08T22:41:34.019Z,20.44
2023-09-08T22:44:02.226Z,20.40
2023-09-08T22:46:30.702Z,20.36
2023-09-08T22:48:58.908Z,20.32
2023-09-08T22:51:27.169Z,20.30
2023-09-08T22:53:55.446Z,20.27
2023-09-08T22:56:23.760Z,20.25
2023-09-08T22:58:52.119Z,20.21
2023-09-08T23:01:20.413Z,20.18
2023-09-08T23:03:48.790Z,20.15
2023-09-08T23:06:17.138Z,20.12
2023-09-08T23:08:45.317Z,20.11
2023-09-08T23:11:13.584Z,20.08
2023-09-08T23:13:41.965Z,20.07
2023-09-08T23:16:14.233Z,20.07
2023-09-08T23:18:42.648Z,19.99
2023-09-08T23:21:11.009Z,19.94
2023-09-08T23:23:39.478Z,19.90
2023-09-08T23:26:07.867Z,19.89
2023-09-08T23:28:37.716Z,19.86
2023-09-08T23:31:05.979Z,19.83
2023-09-08T23:33:34.289Z,19.76
2023-09-08T23:36:02.537Z,19.74
2023-09-08T23:38:30.793Z,19.73
2023-09-08T23:40:58.986Z,19.73
2023-09-08T23:43:27.747Z,19.67
2023-09-08T23:45:56.066Z,19.67
2023-09-08T23:48:24.243Z,19.64
2023-09-08T23:51:00.133Z,19.64
2023-09-08T23:53:29.672Z,19.56
2023-09-08T23:55:58.087Z,19.53
2023-09-08T23:58:26.338Z,19.50
